createdAt,value
2018-06-11T00:02:10.612Z,14.30
2018-06-11T00:04:38.733Z,15.55
2018-06-11T00:07:06.966Z,14.33
2018-06-11T00:09:35.092Z,15.68
2018-06-11T00:12:03.160Z,14.95
2018-06-11T00:14:31.312Z,15.60
2018-06-11T00:16:59.371Z,16.25
2018-06-11T00:19:27.561Z,15.90
2018-06-11T00:21:55.626Z,17.37
2018-06-11T00:24:23.736Z,17.85
2018-06-11T00:26:51.755Z,17.77
2018-06-11T00:29:19.814Z,17.62
2018-06-11T00:31:47.836Z,20.12
2018-06-11T00:34:15.880Z,21.00
2018-06-11T00:36:43.993Z,19.70
2018-06-11T00:39:12.079Z,19.70
2018-06-11T00:41:40.151Z,19.77
2018-06-11T00:44:08.300Z,17.77
2018-06-11T00:46:36.347Z,19.15
2018-06-11T00:49:04.443Z,18.48
2018-06-11T00:51:32.606Z,19.62
2018-06-11T00:54:00.700Z,21.85
2018-06-11T00:56:28.848Z,21.45
2018-06-11T00:58:56.963Z,21.15
2018-06-11T01:01:24.984Z,20.88
2018-06-11T01:03:52.881Z,20.95
2018-06-11T01:06:20.936Z,21.90
2018-06-11T01:08:48.835Z,21.82
2018-06-11T01:11:16.973Z,20.43
2018-06-11T01:13:44.846Z,18.57
2018-06-11T01:16:12.943Z,20.08
2018-06-11T01:18:40.984Z,19.87
2018-06-11T01:21:09.208Z,18.65
2018-06-11T01:23:37.245Z,17.60
2018-06-11T01:26:05.431Z,17.60
2018-06-11T01:28:33.498Z,18.98
2018-06-11T01:31:01.594Z,19.57
2018-06-11T01:33:29.873Z,20.23
2018-06-11T01:35:57.922Z,19.62
2018-06-11T01:38:26.052Z,18.80
2018-06-11T01:40:54.168Z,20.20
2018-06-11T01:43:22.256Z,19.80
2018-06-11T01:45:50.526Z,19.30
2018-06-11T01:48:18.608Z,19.45
2018-06-11T01:50:46.762Z,19.10
2018-06-11T01:53:14.970Z,20.30
2018-06-11T01:55:43.141Z,20.32
2018-06-11T01:58:11.212Z,19.00
2018-06-11T02:00:39.272Z,19.27
2018-06-11T02:03:07.365Z,20.05
2018-06-11T02:05:35.409Z,20.70
2018-06-11T02:08:03.491Z,19.35
2018-06-11T02:10:31.990Z,16.90
2018-06-11T02:13:00.143Z,17.45
2018-06-11T02:15:28.244Z,16.73
2018-06-11T02:17:56.290Z,16.80
2018-06-11T02:20:24.417Z,20.27
2018-06-11T02:22:52.436Z,18.87
2018-06-11T02:25:20.638Z,20.82
2018-06-11T02:27:48.685Z,18.02
2018-06-11T02:30:16.561Z,18.17
2018-06-11T02:32:44.621Z,18.30
2018-06-11T02:35:12.712Z,19.27
2018-06-11T02:37:40.789Z,19.45
2018-06-11T02:40:08.847Z,20.50
2018-06-11T02:42:36.944Z,20.65
2018-06-11T02:45:05.486Z,21.80
2018-06-11T02:47:33.292Z,21.85
2018-06-11T02:50:01.349Z,21.90
2018-06-11T02:52:29.444Z,23.22
2018-06-11T02:54:57.500Z,24.10
2018-06-11T02:57:25.585Z,23.47
2018-06-11T02:59:53.659Z,21.52
2018-06-11T03:02:22.544Z,23.20
2018-06-11T03:04:50.652Z,20.90
2018-06-11T03:07:18.803Z,22.52
2018-06-11T03:09:46.877Z,19.25
2018-06-11T03:12:15.020Z,18.62
2018-06-11T03:14:43.111Z,19.17
2018-06-11T03:17:26.572Z,19.15
2018-06-11T03:20:05.326Z,16.65
2018-06-11T03:22:34.505Z,18.30
2018-06-11T03:25:03.426Z,18.50
2018-06-11T03:27:37.938Z,20.68
2018-06-11T03:30:06.931Z,21.33
2018-06-11T03:32:35.037Z,20.17
2018-06-11T03:35:03.440Z,21.52
2018-06-11T03:37:31.500Z,20.10
2018-06-11T03:39:59.586Z,20.32
2018-06-11T03:42:28.087Z,20.72
2018-06-11T03:44:56.243Z,20.15
2018-06-11T03:47:24.318Z,20.93
2018-06-11T03:49:52.400Z,20.40
2018-06-11T03:52:20.526Z,21.05
2018-06-11T03:54:48.675Z,21.73
2018-06-11T03:57:16.829Z,21.45
2018-06-11T03:59:44.842Z,20.10
2018-06-11T04:02:13.076Z,21.27
2018-06-11T04:04:41.133Z,21.65
2018-06-11T04:07:09.263Z,31.10
2018-06-11T04:09:37.268Z,25.95
2018-06-11T04:12:05.460Z,21.45
2018-06-11T04:14:33.707Z,20.30
2018-06-11T04:17:01.493Z,20.23
2018-06-11T04:19:29.662Z,20.10
2018-06-11T04:21:57.755Z,20.15
2018-06-11T04:24:26.032Z,23.97
2018-06-11T04:26:54.263Z,23.87
2018-06-11T04:29:22.579Z,28.10
2018-06-11T04:31:50.645Z,26.75
2018-06-11T04:34:18.926Z,21.33
2018-06-11T04:36:47.087Z,19.30
2018-06-11T04:39:15.195Z,21.37
2018-06-11T04:41:43.335Z,22.20
2018-06-11T04:44:11.129Z,21.82
2018-06-11T04:46:39.180Z,21.90
2018-06-11T04:49:07.373Z,22.27
2018-06-11T04:51:35.529Z,19.82
2018-06-11T04:54:03.822Z,19.82
2018-06-11T04:56:32.004Z,17.67
2018-06-11T04:59:00.067Z,17.17
2018-06-11T05:01:28.380Z,16.48
2018-06-11T05:03:56.406Z,16.52
2018-06-11T05:06:24.511Z,17.05
2018-06-11T05:08:52.579Z,17.90
2018-06-11T05:11:20.643Z,17.03
2018-06-11T05:13:48.699Z,18.63
2018-06-11T05:16:16.796Z,18.20
2018-06-11T05:18:44.859Z,18.25
2018-06-11T05:21:12.961Z,17.42
2018-06-11T05:23:41.099Z,17.60
2018-06-11T05:26:09.292Z,18.02
2018-06-11T05:28:37.348Z,18.30
2018-06-11T05:31:05.452Z,18.07
2018-06-11T05:33:33.479Z,17.13
2018-06-11T05:36:01.375Z,17.67
2018-06-11T05:38:29.532Z,17.02
2018-06-11T05:40:57.423Z,17.60
2018-06-11T05:43:25.597Z,17.23
2018-06-11T05:45:53.664Z,17.27
2018-06-11T05:48:21.790Z,17.48
2018-06-11T05:50:49.912Z,17.00
2018-06-11T05:53:18.003Z,16.70
2018-06-11T05:55:46.051Z,16.87
2018-06-11T05:58:14.142Z,18.05
2018-06-11T06:00:42.055Z,18.02
2018-06-11T06:03:10.193Z,18.30
2018-06-11T06:05:38.357Z,17.95
2018-06-11T06:08:06.664Z,18.20
2018-06-11T06:10:34.718Z,19.37
2018-06-11T06:13:03.165Z,20.20
2018-06-11T06:15:30.953Z,19.70
2018-06-11T06:17:59.127Z,20.60
2018-06-11T06:20:27.220Z,20.17
2018-06-11T06:22:55.261Z,20.88
2018-06-11T06:25:23.292Z,18.25
2018-06-11T06:27:51.313Z,19.00
2018-06-11T06:30:19.448Z,17.87
2018-06-11T06:32:47.454Z,17.60
2018-06-11T06:35:15.557Z,15.60
2018-06-11T06:37:43.439Z,15.10
2018-06-11T06:40:11.347Z,14.95
2018-06-11T06:42:39.216Z,13.80
2018-06-11T06:45:06.964Z,14.03
2018-06-11T06:47:34.878Z,13.00
2018-06-11T06:50:02.815Z,13.30
2018-06-11T06:52:30.732Z,12.35
2018-06-11T06:54:58.675Z,12.15
2018-06-11T06:57:26.627Z,10.75
2018-06-11T06:59:54.520Z,11.90
2018-06-11T07:02:22.423Z,10.93
2018-06-11T07:04:50.335Z,11.40
2018-06-11T07:07:18.226Z,11.40
2018-06-11T07:09:45.945Z,11.20
2018-06-11T07:12:13.868Z,10.80
2018-06-11T07:14:41.836Z,11.50
2018-06-11T07:17:09.697Z,9.80
2018-06-11T07:19:37.625Z,10.60
2018-06-11T07:22:05.577Z,10.72
2018-06-11T07:24:33.458Z,10.55
2018-06-11T07:27:01.389Z,9.80
2018-06-11T07:29:29.288Z,9.20
2018-06-11T07:31:57.201Z,9.15
2018-06-11T07:34:24.938Z,10.30
2018-06-11T07:36:52.878Z,11.40
2018-06-11T07:39:20.797Z,9.73
2018-06-11T07:41:48.729Z,9.65
2018-06-11T07:44:16.607Z,9.08
2018-06-11T07:46:44.545Z,8.80
2018-06-11T07:49:12.454Z,9.00
2018-06-11T07:51:40.362Z,8.40
2018-06-11T07:54:08.297Z,7.70
2018-06-11T07:56:36.243Z,8.98
2018-06-11T07:59:04.190Z,8.05
2018-06-11T08:01:32.172Z,7.92
2018-06-11T08:04:00.155Z,7.45
2018-06-11T08:06:28.068Z,7.50
2018-06-11T08:08:55.802Z,7.20
2018-06-11T08:11:23.758Z,7.40
2018-06-11T08:13:51.670Z,6.80
2018-06-11T08:16:19.599Z,6.67
2018-06-11T08:18:47.534Z,6.90
2018-06-11T08:21:15.489Z,7.25
2018-06-11T08:23:43.249Z,7.00
2018-06-11T08:26:11.170Z,7.40
2018-06-11T08:28:39.054Z,7.45
2018-06-11T08:31:06.964Z,7.20
2018-06-11T08:33:34.714Z,7.58
2018-06-11T08:37:37.664Z,7.50
2018-06-11T08:40:05.567Z,8.00
2018-06-11T08:42:33.473Z,7.70
2018-06-11T08:45:01.186Z,7.72
2018-06-11T08:47:29.092Z,7.58
2018-06-11T08:49:56.988Z,7.20
2018-06-11T08:52:24.927Z,7.50
2018-06-11T08:54:52.826Z,6.70
2018-06-11T08:57:20.754Z,7.03
2018-06-11T08:59:48.797Z,6.67
2018-06-11T09:02:16.723Z,7.25
2018-06-11T09:04:44.627Z,6.80
2018-06-11T09:07:12.559Z,6.72
2018-06-11T09:09:40.275Z,6.30
2018-06-11T09:12:08.228Z,6.50
2018-06-11T09:14:36.087Z,6.90
2018-06-11T09:17:04.060Z,7.25
2018-06-11T09:19:31.988Z,7.10
2018-06-11T09:21:59.872Z,6.10
2018-06-11T09:24:27.603Z,6.12
2018-06-11T09:26:55.519Z,6.87
2018-06-11T09:29:23.420Z,6.50
2018-06-11T09:31:51.324Z,8.00
2018-06-11T09:34:19.328Z,6.60
2018-06-11T09:36:47.078Z,6.70
2018-06-11T09:39:15.025Z,6.97
2018-06-11T09:41:42.896Z,6.90
2018-06-11T09:44:10.841Z,6.70
2018-06-11T09:46:38.746Z,5.80
2018-06-11T09:49:06.749Z,5.67
2018-06-11T09:51:34.676Z,5.78
2018-06-11T09:54:02.595Z,5.58
2018-06-11T09:56:30.520Z,5.22
2018-06-11T09:58:58.434Z,5.00
2018-06-11T10:01:26.348Z,5.05
2018-06-11T10:03:54.235Z,5.35
2018-06-11T10:06:22.184Z,5.40
2018-06-11T10:08:50.097Z,5.10
2018-06-11T10:11:18.029Z,6.10
2018-06-11T10:13:45.897Z,5.90
2018-06-11T10:16:13.803Z,5.23
2018-06-11T10:18:41.502Z,5.83
2018-06-11T10:21:09.414Z,4.77
2018-06-11T10:23:37.304Z,6.72
2018-06-11T10:26:05.107Z,5.30
2018-06-11T10:28:33.199Z,6.20
2018-06-11T10:31:01.218Z,7.23
2018-06-11T10:33:29.023Z,8.43
2018-06-11T10:35:57.184Z,7.42
2018-06-11T10:38:25.277Z,9.13
2018-06-11T10:40:53.328Z,8.18
2018-06-11T10:43:21.428Z,8.78
2018-06-11T10:45:49.463Z,11.12
2018-06-11T10:48:17.559Z,10.43
2018-06-11T10:50:45.459Z,8.03
2018-06-11T10:53:13.352Z,8.23
2018-06-11T10:55:41.341Z,7.60
2018-06-11T10:58:09.087Z,6.07
2018-06-11T11:00:37.020Z,5.80
2018-06-11T11:03:04.980Z,7.30
2018-06-11T11:05:32.903Z,5.83
2018-06-11T11:08:00.792Z,6.63
2018-06-11T11:10:28.761Z,6.10
2018-06-11T11:12:56.643Z,6.87
2018-06-11T11:15:24.574Z,12.83
2018-06-11T11:17:52.436Z,8.53
2018-06-11T11:20:20.359Z,10.63
2018-06-11T11:22:48.233Z,7.97
2018-06-11T11:25:16.127Z,6.30
2018-06-11T11:27:44.020Z,10.27
2018-06-11T11:30:11.934Z,7.03
2018-06-11T11:32:39.803Z,10.60
2018-06-11T11:35:07.687Z,7.27
2018-06-11T11:37:35.584Z,7.10
2018-06-11T11:40:03.642Z,8.90
2018-06-11T11:42:31.564Z,12.03
2018-06-11T11:44:59.445Z,9.23
2018-06-11T11:47:27.368Z,7.77
2018-06-11T11:49:55.252Z,8.90
2018-06-11T11:52:23.147Z,9.13
2018-06-11T11:54:51.021Z,7.90
2018-06-11T11:57:18.898Z,8.00
2018-06-11T11:59:46.820Z,11.30
2018-06-11T12:02:14.680Z,12.93
2018-06-11T12:04:42.587Z,16.93
2018-06-11T12:07:10.513Z,11.40
2018-06-11T12:09:38.412Z,10.50
2018-06-11T12:12:06.106Z,9.73
2018-06-11T12:14:34.025Z,6.47
2018-06-11T12:17:01.913Z,9.30
2018-06-11T12:19:29.811Z,12.97
2018-06-11T12:21:57.656Z,11.80
2018-06-11T12:24:25.359Z,8.63
2018-06-11T12:26:53.276Z,9.77
2018-06-11T12:29:21.132Z,10.20
2018-06-11T12:31:49.064Z,8.80
2018-06-11T12:34:16.933Z,14.67
2018-06-11T12:36:44.843Z,15.50
2018-06-11T12:39:12.736Z,11.23
2018-06-11T12:41:40.672Z,9.20
2018-06-11T12:44:08.556Z,11.37
2018-06-11T12:46:36.516Z,15.00
2018-06-11T12:49:04.361Z,12.83
2018-06-11T12:51:32.307Z,12.43
2018-06-11T12:54:00.216Z,15.93
2018-06-11T12:56:28.141Z,15.27
2018-06-11T12:58:56.036Z,10.33
2018-06-11T13:01:23.932Z,9.17
2018-06-11T13:03:51.796Z,10.23
2018-06-11T13:06:19.832Z,9.87
2018-06-11T13:08:47.894Z,9.40
2018-06-11T13:11:15.980Z,12.63
2018-06-11T13:13:44.044Z,12.43
2018-06-11T13:16:12.224Z,17.63
2018-06-11T13:18:40.397Z,19.83
2018-06-11T13:21:08.484Z,11.73
2018-06-11T13:23:36.404Z,14.27
2018-06-11T13:26:04.406Z,11.40
2018-06-11T13:28:32.305Z,13.20
2018-06-11T13:31:00.227Z,8.17
2018-06-11T13:33:28.020Z,12.27
2018-06-11T13:35:56.112Z,9.57
2018-06-11T13:38:24.277Z,12.30
2018-06-11T13:40:52.426Z,8.83
2018-06-11T13:43:20.499Z,13.17
2018-06-11T13:45:48.682Z,10.20
2018-06-11T13:48:16.771Z,11.37
2018-06-11T13:50:44.815Z,9.30
2018-06-11T13:53:12.927Z,10.50
2018-06-11T13:55:41.058Z,12.37
2018-06-11T13:58:09.159Z,11.50
2018-06-11T14:00:37.161Z,10.50
2018-06-11T14:03:05.511Z,8.57
2018-06-11T14:05:33.424Z,8.80
2018-06-11T14:08:01.556Z,9.30
2018-06-11T14:10:30.636Z,10.70
2018-06-11T14:12:58.720Z,11.30
2018-06-11T14:15:27.604Z,10.30
2018-06-11T14:17:55.794Z,10.43
2018-06-11T14:20:23.891Z,12.50
2018-06-11T14:22:52.189Z,10.67
2018-06-11T14:25:20.383Z,17.90
2018-06-11T14:27:48.161Z,17.77
2018-06-11T14:30:15.952Z,10.57
2018-06-11T14:32:44.119Z,10.87
2018-06-11T14:35:12.407Z,8.50
2018-06-11T14:37:40.451Z,10.80
2018-06-11T14:40:08.246Z,10.87
2018-06-11T14:42:36.401Z,9.50
2018-06-11T14:45:04.671Z,9.23
2018-06-11T14:47:32.532Z,14.87
2018-06-11T14:50:00.310Z,9.40
2018-06-11T14:52:28.099Z,8.40
2018-06-11T14:54:56.259Z,12.57
2018-06-11T14:57:24.373Z,8.53
2018-06-11T14:59:52.512Z,12.27
2018-06-11T15:02:20.601Z,8.90
2018-06-11T15:04:48.651Z,10.83
2018-06-11T15:07:16.843Z,8.93
2018-06-11T15:09:44.944Z,9.83
2018-06-11T15:12:13.028Z,12.93
2018-06-11T15:14:41.169Z,11.17
2018-06-11T15:17:11.405Z,9.17
2018-06-11T15:19:41.986Z,15.20
2018-06-11T15:22:13.206Z,9.23
2018-06-11T15:24:42.243Z,7.67
2018-06-11T15:27:12.485Z,12.83
2018-06-11T15:29:41.409Z,9.13
2018-06-11T15:32:10.540Z,12.07
2018-06-11T15:34:41.414Z,10.73
2018-06-11T15:37:09.582Z,7.87
2018-06-11T15:39:40.525Z,9.83
2018-06-11T15:42:11.666Z,9.80
2018-06-11T15:47:16.647Z,8.93
2018-06-11T15:49:46.047Z,10.93
2018-06-11T15:54:46.349Z,10.85
2018-06-11T15:57:14.748Z,12.27
2018-06-11T20:37:38.610Z,8.65
2018-06-11T20:40:06.754Z,9.13
2018-06-11T20:42:34.852Z,10.08
2018-06-11T20:45:03.146Z,9.60
2018-06-11T20:47:31.278Z,11.80
2018-06-11T20:49:59.374Z,11.80
2018-06-11T20:52:27.786Z,12.53
2018-06-11T20:54:55.951Z,12.20
2018-06-11T20:57:23.975Z,11.65
2018-06-11T20:59:52.182Z,11.55
2018-06-11T21:02:20.323Z,10.68
2018-06-11T21:04:48.213Z,13.03
2018-06-11T21:07:16.316Z,11.93
2018-06-11T21:09:44.245Z,12.18
2018-06-11T21:12:12.348Z,11.55
2018-06-11T21:14:40.400Z,11.80
2018-06-11T21:17:08.516Z,12.98
2018-06-11T21:19:36.574Z,13.30
2018-06-11T21:22:04.640Z,13.32
2018-06-11T21:24:32.792Z,12.70
2018-06-11T21:27:01.008Z,12.33
2018-06-11T21:29:29.047Z,10.80
2018-06-11T21:31:57.223Z,9.60
2018-06-11T21:34:25.530Z,10.33
2018-06-11T21:36:53.576Z,11.20
2018-06-11T21:39:21.720Z,11.35
2018-06-11T21:41:49.495Z,10.93
2018-06-11T21:44:17.277Z,11.65
2018-06-11T21:46:45.452Z,11.70
2018-06-11T21:49:13.569Z,11.10
2018-06-11T21:51:41.591Z,10.63
2018-06-11T21:54:09.700Z,10.78
2018-06-11T21:56:37.736Z,10.93
2018-06-11T21:59:05.855Z,10.55
2018-06-11T22:01:33.887Z,10.80
2018-06-11T22:04:02.079Z,9.90
2018-06-11T22:06:30.029Z,10.35
2018-06-11T22:08:58.115Z,10.15
2018-06-11T22:11:26.197Z,10.30
2018-06-11T22:13:54.350Z,9.70
2018-06-11T22:16:22.462Z,9.65
2018-06-11T22:18:50.503Z,9.90
2018-06-11T22:21:18.629Z,10.60
2018-06-11T22:23:46.678Z,10.70
2018-06-11T22:26:14.715Z,10.57
2018-06-11T22:28:42.919Z,10.28
2018-06-11T22:31:11.083Z,10.00
2018-06-11T22:33:39.182Z,9.30
2018-06-11T22:36:07.420Z,9.33
2018-06-11T22:38:35.740Z,8.93
2018-06-11T22:41:03.879Z,8.53
2018-06-11T22:43:31.971Z,8.48
2018-06-11T22:46:00.211Z,9.40
2018-06-11T22:48:28.109Z,9.37
2018-06-11T22:50:56.208Z,8.75
2018-06-11T22:53:24.247Z,8.95
2018-06-11T22:55:52.436Z,7.72
2018-06-11T22:58:20.482Z,7.30
2018-06-11T23:00:48.287Z,6.25
2018-06-11T23:03:16.325Z,6.42
2018-06-11T23:05:44.427Z,6.03
2018-06-11T23:08:12.580Z,6.72
2018-06-11T23:10:40.792Z,6.28
2018-06-11T23:13:08.853Z,6.67
2018-06-11T23:15:36.952Z,6.50
2018-06-11T23:18:04.991Z,6.78
2018-06-11T23:20:33.041Z,7.00
2018-06-11T23:23:00.834Z,7.62
2018-06-11T23:25:29.123Z,7.60
2018-06-11T23:27:57.209Z,7.35
2018-06-11T23:30:25.232Z,9.37
2018-06-11T23:32:53.440Z,7.03
2018-06-11T23:35:21.479Z,6.92
2018-06-11T23:37:49.290Z,8.57
2018-06-11T23:40:17.547Z,8.23
2018-06-11T23:42:45.736Z,9.85
2018-06-11T23:45:14.113Z,7.33
2018-06-11T23:47:42.174Z,7.67
2018-06-11T23:50:10.356Z,7.28
2018-06-11T23:52:38.452Z,7.90
2018-06-11T23:55:06.504Z,8.23
2018-06-11T23:57:34.540Z,10.00
